createdAt,value
2024-05-09T00:01:52.325Z,102976.41
2024-05-09T00:04:19.980Z,102975.06
2024-05-09T00:06:46.653Z,102978.69
2024-05-09T00:10:05.616Z,102967.16
2024-05-09T00:12:35.780Z,102972.47
2024-05-09T00:15:02.418Z,102972.41
2024-05-09T00:17:29.197Z,102976.91
2024-05-09T00:19:55.962Z,102963.66
2024-05-09T00:22:22.596Z,102969.84
2024-05-09T00:24:49.297Z,102966.38
2024-05-09T00:27:16.190Z,102968.31
2024-05-09T00:29:42.845Z,102967.53
2024-05-09T00:32:09.589Z,102966.72
2024-05-09T00:34:36.356Z,102956.91
2024-05-09T00:37:03.134Z,102957.88
2024-05-09T00:39:29.785Z,102957.03
2024-05-09T00:41:56.421Z,102945.59
2024-05-09T00:44:23.188Z,102945.50
2024-05-09T00:50:36.376Z,102945.81
2024-05-09T00:53:11.019Z,102942.31
2024-05-09T00:55:39.369Z,102947.66
2024-05-09T00:58:10.615Z,102945.00
2024-05-09T01:00:40.292Z,102945.19
2024-05-09T01:03:10.392Z,102944.38
2024-05-09T01:05:39.597Z,102947.91
2024-05-09T01:11:53.915Z,102946.34
2024-05-09T01:14:20.668Z,102946.25
2024-05-09T01:16:47.424Z,102944.50
2024-05-09T01:19:35.647Z,102946.53
2024-05-09T01:22:04.236Z,102941.31
2024-05-09T01:24:30.935Z,102949.19
2024-05-09T01:26:57.570Z,102946.63
2024-05-09T01:29:24.406Z,102941.47
2024-05-09T01:31:52.400Z,102937.94
2024-05-09T01:34:19.254Z,102931.88
2024-05-09T01:36:45.993Z,102931.06
2024-05-09T01:39:12.613Z,102939.13
2024-05-09T01:41:39.298Z,102936.44
2024-05-09T01:44:06.057Z,102937.41
2024-05-09T01:46:32.733Z,102934.63
2024-05-09T01:52:47.164Z,102929.47
2024-05-09T01:55:14.188Z,102931.31
2024-05-09T01:57:40.808Z,102926.03
2024-05-09T02:00:10.227Z,102935.88
2024-05-09T02:02:37.391Z,102929.66
2024-05-09T02:05:04.478Z,102928.81
2024-05-09T02:07:31.185Z,102933.25
2024-05-09T02:09:57.846Z,102923.66
2024-05-09T02:16:14.258Z,102933.56
2024-05-09T02:18:40.966Z,102930.03
2024-05-09T02:25:08.055Z,102934.53
2024-05-09T02:27:34.666Z,102932.97
2024-05-09T02:30:01.780Z,102934.75
2024-05-09T02:32:28.676Z,102936.50
2024-05-09T02:34:55.520Z,102931.19
2024-05-09T02:37:22.175Z,102932.09
2024-05-09T02:39:48.808Z,102932.13
2024-05-09T02:42:15.458Z,102929.56
2024-05-09T02:44:42.097Z,102928.81
2024-05-09T02:47:08.977Z,102926.25
2024-05-09T02:49:35.801Z,102923.59
2024-05-09T02:52:02.488Z,102925.34
2024-05-09T02:54:29.105Z,102915.69
2024-05-09T02:56:55.716Z,102918.47
2024-05-09T02:59:22.616Z,102929.13
2024-05-09T03:01:49.517Z,102923.94
2024-05-09T03:04:16.342Z,102918.66
2024-05-09T03:06:43.550Z,102916.94
2024-05-09T03:09:10.348Z,102922.28
2024-05-09T03:11:37.359Z,102923.22
2024-05-09T03:14:04.132Z,102917.31
2024-05-09T03:17:24.371Z,102915.41
2024-05-09T03:19:51.377Z,102915.47
2024-05-09T03:22:18.067Z,102913.78
2024-05-09T03:24:44.839Z,102919.25
2024-05-09T03:27:11.437Z,102913.03
2024-05-09T03:29:38.095Z,102907.69
2024-05-09T03:32:05.432Z,102910.31
2024-05-09T03:35:22.233Z,102912.03
2024-05-09T03:37:49.134Z,102908.56
2024-05-09T03:40:20.898Z,102914.94
2024-05-09T03:42:50.665Z,102905.28
2024-05-09T03:45:17.303Z,102900.94
2024-05-09T03:47:44.165Z,102906.31
2024-05-09T03:50:18.273Z,102910.75
2024-05-09T03:52:52.500Z,102906.31
2024-05-09T03:55:19.162Z,102910.75
2024-05-09T03:57:45.811Z,102919.66
2024-05-09T04:00:18.190Z,102916.25
2024-05-09T04:02:52.932Z,102926.00
2024-05-09T04:05:19.676Z,102918.09
2024-05-09T04:11:34.180Z,102923.66
2024-05-09T04:14:01.031Z,102923.59
2024-05-09T04:16:29.772Z,102918.31
2024-05-09T04:18:56.502Z,102919.25
2024-05-09T04:21:23.203Z,102921.00
2024-05-09T04:23:49.849Z,102916.53
2024-05-09T04:26:16.552Z,102920.13
2024-05-09T04:28:43.192Z,102921.13
2024-05-09T04:31:09.845Z,102923.78
2024-05-09T04:33:36.660Z,102918.34
2024-05-09T04:36:03.677Z,102922.75
2024-05-09T04:38:30.414Z,102922.66
2024-05-09T04:40:57.288Z,102930.53
2024-05-09T04:43:24.056Z,102929.59
2024-05-09T04:45:50.822Z,102932.50
2024-05-09T04:48:17.640Z,102938.63
2024-05-09T04:50:44.611Z,102941.13
2024-05-09T04:53:16.205Z,102933.94
2024-05-09T04:55:43.330Z,102934.63
2024-05-09T04:58:10.559Z,102932.81
2024-05-09T05:00:39.898Z,102945.28
2024-05-09T05:03:10.762Z,102943.63
2024-05-09T05:05:43.637Z,102949.06
2024-05-09T05:08:16.272Z,102945.41
2024-05-09T05:10:44.524Z,102944.13
2024-05-09T05:13:23.810Z,102944.72
2024-05-09T05:15:55.803Z,102954.25
2024-05-09T05:18:24.189Z,102954.19
2024-05-09T05:20:51.572Z,102959.41
2024-05-09T05:23:20.247Z,102946.91
2024-05-09T05:25:48.814Z,102949.41
2024-05-09T05:28:16.484Z,102958.94
2024-05-09T05:30:43.227Z,102955.13
2024-05-09T05:33:14.932Z,102959.50
2024-05-09T05:35:42.304Z,102962.97
2024-05-09T05:38:10.071Z,102953.91
2024-05-09T05:40:38.663Z,102954.47
2024-05-09T05:46:53.970Z,102957.31
2024-05-09T05:49:20.826Z,102964.25
2024-05-09T05:51:47.599Z,102959.53
2024-05-09T05:54:14.214Z,102967.22
2024-05-09T05:56:40.976Z,102954.53
2024-05-09T05:59:07.667Z,102961.34
2024-05-09T06:01:34.462Z,102950.50
2024-05-09T06:07:42.312Z,102953.44
2024-05-09T06:10:17.257Z,102949.53
2024-05-09T06:12:48.366Z,102953.59
2024-05-09T06:15:15.139Z,102949.72
2024-05-09T06:17:41.914Z,102950.25
2024-05-09T06:20:16.634Z,102951.72
2024-05-09T06:22:50.082Z,102947.75
2024-05-09T06:25:16.904Z,102952.75
2024-05-09T06:27:43.682Z,102935.59
2024-05-09T06:30:21.087Z,102940.63
2024-05-09T06:32:52.861Z,102935.84
2024-05-09T06:35:19.648Z,102938.06
2024-05-09T06:37:46.404Z,102936.66
2024-05-09T06:40:17.384Z,102933.50
2024-05-09T06:42:44.189Z,102931.09
2024-05-09T06:45:10.885Z,102941.22
2024-05-09T06:47:37.594Z,102929.97
2024-05-09T06:50:08.338Z,102931.03
2024-05-09T06:52:39.834Z,102929.28
2024-05-09T06:55:06.593Z,102931.47
2024-05-09T06:57:33.194Z,102926.44
2024-05-09T07:00:00.998Z,102937.19
2024-05-09T07:02:28.136Z,102937.50
2024-05-09T07:04:54.926Z,102930.63
2024-05-09T07:07:21.957Z,102931.19
2024-05-09T07:09:48.596Z,102934.03
2024-05-09T07:12:15.414Z,102937.81
2024-05-09T07:14:42.171Z,102927.53
2024-05-09T07:17:09.251Z,102925.50
2024-05-09T07:19:36.118Z,102930.63
2024-05-09T07:25:49.909Z,102923.91
2024-05-09T07:28:18.318Z,102924.63
2024-05-09T07:30:45.596Z,102922.13
2024-05-09T07:33:23.397Z,102923.25
2024-05-09T07:35:51.279Z,102916.44
2024-05-09T07:38:17.996Z,102921.84
2024-05-09T07:40:44.838Z,102918.81
2024-05-09T07:43:12.981Z,102910.63
2024-05-09T07:45:49.870Z,102913.47
2024-05-09T07:52:37.611Z,102906.50
2024-05-09T07:53:45.928Z,102902.47
2024-05-09T07:56:16.509Z,102912.59
2024-05-09T07:58:44.142Z,102904.16
2024-05-09T08:01:11.208Z,102912.09
2024-05-09T08:03:48.163Z,102912.84
2024-05-09T08:06:16.245Z,102916.75
2024-05-09T08:08:50.986Z,102909.03
2024-05-09T08:11:17.733Z,102904.38
2024-05-09T08:13:44.478Z,102906.34
2024-05-09T08:16:11.276Z,102904.94
2024-05-09T08:18:38.185Z,102891.84
2024-05-09T08:21:05.307Z,102903.63
2024-05-09T08:23:32.152Z,102900.47
2024-05-09T08:25:58.804Z,102900.81
2024-05-09T08:28:25.470Z,102895.38
2024-05-09T08:30:52.347Z,102898.53
2024-05-09T08:33:19.282Z,102907.28
2024-05-09T08:35:46.050Z,102902.22
2024-05-09T08:38:12.732Z,102895.44
2024-05-09T08:40:39.518Z,102895.44
2024-05-09T08:43:11.808Z,102895.72
2024-05-09T08:45:44.569Z,102897.34
2024-05-09T08:48:15.045Z,102892.16
2024-05-09T08:50:43.494Z,102895.94
2024-05-09T08:53:10.565Z,102896.41
2024-05-09T08:55:41.523Z,102895.25
2024-05-09T08:58:14.356Z,102889.16
2024-05-09T09:04:31.193Z,102890.47
2024-05-09T09:06:59.775Z,102894.75
2024-05-09T09:09:28.024Z,102889.22
2024-05-09T09:11:54.811Z,102890.75
2024-05-09T09:15:06.494Z,102891.63
2024-05-09T09:17:33.222Z,102905.19
2024-05-09T09:20:00.482Z,102895.84
2024-05-09T09:22:27.241Z,102882.63
2024-05-09T09:24:53.941Z,102887.59
2024-05-09T09:27:22.056Z,102887.81
2024-05-09T09:29:49.102Z,102882.31
2024-05-09T09:33:31.163Z,102878.94
2024-05-09T09:35:58.174Z,102880.84
2024-05-09T09:38:30.679Z,102881.22
2024-05-09T09:40:58.158Z,102873.13
2024-05-09T09:43:26.489Z,102866.63
2024-05-09T09:45:55.323Z,102866.03
2024-05-09T09:48:23.674Z,102872.13
2024-05-09T09:50:55.412Z,102870.25
2024-05-09T09:53:23.488Z,102864.56
2024-05-09T09:55:52.139Z,102873.63
2024-05-09T09:58:19.360Z,102872.38
2024-05-09T10:00:46.577Z,102866.19
2024-05-09T10:03:13.494Z,102864.63
2024-05-09T10:05:43.981Z,102864.41
2024-05-09T10:08:13.815Z,102861.72
2024-05-09T10:10:46.566Z,102854.91
2024-05-09T10:13:13.441Z,102851.28
2024-05-09T10:19:28.116Z,102849.19
2024-05-09T10:22:03.006Z,102845.31
2024-05-09T10:24:52.947Z,102842.91
2024-05-09T10:27:30.273Z,102853.22
2024-05-09T10:29:58.592Z,102837.50
2024-05-09T10:36:41.979Z,102839.94
2024-05-09T10:39:08.779Z,102832.91
2024-05-09T10:41:38.150Z,102832.94
2024-05-09T10:44:12.072Z,102835.16
2024-05-09T10:46:38.735Z,102827.28
2024-05-09T10:49:07.858Z,102828.47
2024-05-09T10:51:35.376Z,102824.03
2024-05-09T10:54:20.660Z,102824.09
2024-05-09T10:56:56.042Z,102822.94
2024-05-09T10:59:22.669Z,102815.16
2024-05-09T11:01:50.684Z,102818.00
2024-05-09T11:08:05.462Z,102812.97
2024-05-09T11:10:34.336Z,102826.19
2024-05-09T11:13:01.535Z,102812.69
2024-05-09T11:15:48.476Z,102813.56
2024-05-09T11:18:26.447Z,102812.78
2024-05-09T11:20:56.320Z,102805.94
2024-05-09T11:23:27.275Z,102807.00
2024-05-09T11:25:55.388Z,102793.56
2024-05-09T11:28:22.985Z,102796.22
2024-05-09T11:30:52.739Z,102792.31
2024-05-09T11:33:20.448Z,102785.72
2024-05-09T11:35:47.483Z,102791.66
2024-05-09T11:38:14.351Z,102790.09
2024-05-09T11:40:41.105Z,102785.56
2024-05-09T11:43:08.041Z,102786.28
2024-05-09T11:45:34.799Z,102787.81
2024-05-09T11:48:01.709Z,102788.00
2024-05-09T11:50:33.099Z,102786.19
2024-05-09T11:53:02.393Z,102784.78
2024-05-09T11:55:29.346Z,102780.41
2024-05-09T11:57:56.935Z,102769.75
2024-05-09T12:00:33.003Z,102770.03
2024-05-09T12:04:00.134Z,102772.41
2024-05-09T12:06:27.296Z,102763.69
2024-05-09T12:08:54.094Z,102770.53
2024-05-09T12:11:20.840Z,102759.84
2024-05-09T12:13:47.620Z,102761.31
2024-05-09T12:16:14.495Z,102760.31
2024-05-09T12:18:41.342Z,102758.03
2024-05-09T12:21:08.094Z,102758.03
2024-05-09T12:23:34.770Z,102760.59
2024-05-09T12:26:58.214Z,102753.38
2024-05-09T12:29:25.198Z,102745.50
2024-05-09T12:31:53.206Z,102748.44
2024-05-09T12:34:21.604Z,102744.16
2024-05-09T12:36:51.301Z,102743.66
2024-05-09T12:39:19.366Z,102747.09
2024-05-09T12:41:47.621Z,102745.50
2024-05-09T12:44:15.657Z,102734.25
2024-05-09T12:46:42.401Z,102738.13
2024-05-09T12:49:09.594Z,102732.84
2024-05-09T12:51:36.407Z,102737.00
2024-05-09T12:54:03.163Z,102724.34
2024-05-09T12:56:29.815Z,102725.13
2024-05-09T12:58:56.553Z,102719.31
2024-05-09T13:01:23.249Z,102720.41
2024-05-09T13:03:50.227Z,102721.38
2024-05-09T13:06:17.178Z,102716.25
2024-05-09T13:08:43.885Z,102719.44
2024-05-09T13:11:10.675Z,102712.25
2024-05-09T13:13:37.441Z,102709.06
2024-05-09T13:16:04.493Z,102716.19
2024-05-09T13:18:33.674Z,102716.88
2024-05-09T13:21:00.940Z,102713.78
2024-05-09T13:23:27.765Z,102716.63
2024-05-09T13:25:54.502Z,102721.06
2024-05-09T13:28:22.722Z,102720.41
2024-05-09T13:30:49.472Z,102724.72
2024-05-09T13:33:16.330Z,102724.09
2024-05-09T13:35:48.605Z,102716.22
2024-05-09T13:38:23.144Z,102717.22
2024-05-09T13:44:43.183Z,102715.72
2024-05-09T13:51:12.193Z,102717.94
2024-05-09T13:53:40.368Z,102718.69
2024-05-09T13:56:08.827Z,102711.94
2024-05-09T13:58:37.081Z,102710.00
2024-05-09T14:01:05.252Z,102701.66
2024-05-09T14:03:33.772Z,102703.94
2024-05-09T14:06:02.398Z,102699.84
2024-05-09T14:08:29.352Z,102700.72
2024-05-09T14:10:56.307Z,102694.84
2024-05-09T14:13:23.075Z,102698.97
2024-05-09T14:15:50.171Z,102695.97
2024-05-09T14:18:18.186Z,102694.66
2024-05-09T14:20:44.944Z,102694.56
2024-05-09T14:23:14.481Z,102687.47
2024-05-09T14:25:43.580Z,102690.06
2024-05-09T14:28:13.020Z,102687.72
2024-05-09T14:30:40.398Z,102683.19
2024-05-09T14:33:09.250Z,102667.84
2024-05-09T14:35:39.407Z,102681.22
2024-05-09T14:38:08.914Z,102675.44
2024-05-09T14:40:42.056Z,102675.06
2024-05-09T14:43:13.611Z,102679.38
2024-05-09T14:45:41.138Z,102673.00
2024-05-09T14:48:08.603Z,102664.88
2024-05-09T14:50:38.704Z,102664.78
2024-05-09T14:53:11.708Z,102659.72
2024-05-09T14:55:40.642Z,102657.28
2024-05-09T14:58:09.839Z,102658.44
2024-05-09T15:00:41.310Z,102658.38
2024-05-09T15:03:11.301Z,102656.66
2024-05-09T15:05:38.189Z,102655.00
2024-05-09T15:08:08.751Z,102660.63
2024-05-09T15:10:37.002Z,102655.44
2024-05-09T15:13:05.336Z,102652.44
2024-05-09T15:15:32.777Z,102648.22
2024-05-09T15:18:00.165Z,102642.44
2024-05-09T15:20:33.664Z,102639.59
2024-05-09T15:23:03.711Z,102642.81
2024-05-09T15:25:30.778Z,102639.47
2024-05-09T15:27:57.654Z,102630.06
2024-05-09T15:30:30.608Z,102641.91
2024-05-09T15:33:00.107Z,102630.88
2024-05-09T15:36:41.035Z,102623.28
2024-05-09T15:39:09.180Z,102625.59
2024-05-09T15:42:02.683Z,102621.59
2024-05-09T15:44:29.380Z,102621.91
2024-05-09T15:46:56.418Z,102612.06
2024-05-09T15:49:23.178Z,102614.91
2024-05-09T15:51:49.948Z,102607.03
2024-05-09T15:54:16.679Z,102601.44
2024-05-09T15:56:47.274Z,102597.94
2024-05-09T15:59:13.997Z,102602.88
2024-05-09T16:01:40.843Z,102606.44
2024-05-09T16:04:07.804Z,102599.69
2024-05-09T16:07:08.538Z,102585.94
2024-05-09T16:09:37.548Z,102590.66
2024-05-09T16:12:05.355Z,102600.34
2024-05-09T16:14:32.861Z,102588.16
2024-05-09T16:17:03.828Z,102586.38
2024-05-09T16:19:31.937Z,102587.34
2024-05-09T16:22:00.314Z,102583.25
2024-05-09T16:25:27.602Z,102572.94
2024-05-09T16:28:51.558Z,102576.06
2024-05-09T16:31:18.236Z,102576.44
2024-05-09T16:33:45.263Z,102574.19
2024-05-09T16:36:12.037Z,102571.47
2024-05-09T16:38:40.047Z,102567.88
2024-05-09T16:41:06.793Z,102564.66
2024-05-09T16:43:33.742Z,102560.78
2024-05-09T16:46:00.524Z,102554.97
2024-05-09T16:48:53.796Z,102552.69
2024-05-09T16:51:22.164Z,102545.50
2024-05-09T16:53:49.989Z,102551.09
2024-05-09T16:56:16.755Z,102553.97
2024-05-09T16:58:43.610Z,102561.41
2024-05-09T17:01:13.816Z,102555.59
2024-05-09T17:03:40.945Z,102551.34
2024-05-09T17:06:09.842Z,102559.38
2024-05-09T17:08:37.832Z,102557.94
2024-05-09T17:11:04.963Z,102555.72
2024-05-09T17:13:32.535Z,102547.59
2024-05-09T17:18:26.497Z,102549.47
2024-05-09T17:20:53.179Z,102556.72
2024-05-09T17:23:19.865Z,102551.63
2024-05-09T17:25:46.656Z,102548.59
2024-05-09T17:28:13.626Z,102547.66
2024-05-09T17:34:28.175Z,102538.53
2024-05-09T17:36:55.128Z,102525.69
2024-05-09T17:39:21.772Z,102541.16
2024-05-09T17:41:48.449Z,102547.03
2024-05-09T17:44:15.117Z,102538.28
2024-05-09T17:46:42.113Z,102541.19
2024-05-09T17:52:55.955Z,102533.75
2024-05-09T17:55:22.750Z,102538.72
2024-05-09T17:57:49.977Z,102543.97
2024-05-09T18:00:24.670Z,102540.84
2024-05-09T18:03:00.722Z,102538.06
2024-05-09T18:05:29.057Z,102537.31
2024-05-09T18:07:57.106Z,102532.88
2024-05-09T18:10:30.101Z,102537.00
2024-05-09T18:16:49.901Z,102542.69
2024-05-09T18:19:16.697Z,102550.13
2024-05-09T18:22:23.748Z,102546.38
2024-05-09T18:24:50.574Z,102549.22
2024-05-09T18:27:19.085Z,102544.59
2024-05-09T18:29:45.703Z,102550.09
2024-05-09T18:32:12.368Z,102539.94
2024-05-09T18:34:39.079Z,102535.44
2024-05-09T18:37:05.803Z,102542.59
2024-05-09T18:39:32.665Z,102544.03
2024-05-09T18:42:01.158Z,102547.88
2024-05-09T18:44:27.941Z,102541.63
2024-05-09T18:46:55.043Z,102553.19
2024-05-09T18:49:21.873Z,102552.84
2024-05-09T18:51:48.743Z,102552.50
2024-05-09T18:54:40.754Z,102558.53
2024-05-09T18:57:07.502Z,102557.06
2024-05-09T18:59:34.212Z,102560.25
2024-05-09T19:02:00.993Z,102555.56
2024-05-09T19:04:27.833Z,102551.78
2024-05-09T19:07:04.377Z,102552.88
2024-05-09T19:09:31.106Z,102554.69
2024-05-09T19:12:00.577Z,102547.53
2024-05-09T19:14:27.286Z,102555.03
2024-05-09T19:20:36.256Z,102564.78
2024-05-09T19:23:04.824Z,102565.59
2024-05-09T19:25:32.170Z,102563.34
2024-05-09T19:27:59.186Z,102569.63
2024-05-09T19:30:34.992Z,102565.91
2024-05-09T19:33:07.012Z,102572.31
2024-05-09T19:35:33.798Z,102572.44
2024-05-09T19:38:00.710Z,102565.53
2024-05-09T19:40:31.818Z,102570.91
2024-05-09T19:43:01.782Z,102564.25
2024-05-09T19:45:29.190Z,102564.03
2024-05-09T19:47:56.384Z,102563.41
2024-05-09T19:50:31.696Z,102568.78
2024-05-09T19:53:06.021Z,102568.69
2024-05-09T19:55:33.240Z,102565.25
2024-05-09T19:58:01.656Z,102573.75
2024-05-09T20:00:35.687Z,102572.38
2024-05-09T20:03:04.247Z,102576.34
2024-05-09T20:05:31.458Z,102569.69
2024-05-09T20:11:46.025Z,102570.03
2024-05-09T20:14:12.782Z,102571.75
2024-05-09T20:16:39.421Z,102567.44
2024-05-09T20:19:06.228Z,102564.06
2024-05-09T20:21:33.001Z,102573.53
2024-05-09T20:23:59.707Z,102577.03
2024-05-09T20:26:29.860Z,102576.22
2024-05-09T20:28:57.587Z,102579.13
2024-05-09T20:31:24.601Z,102575.63
2024-05-09T20:33:51.445Z,102582.28
2024-05-09T20:36:18.175Z,102577.97
2024-05-09T20:38:53.802Z,102592.56
2024-05-09T20:41:20.448Z,102592.94
2024-05-09T20:43:47.103Z,102587.22
2024-05-09T20:46:16.932Z,102588.06
2024-05-09T20:48:43.780Z,102583.09
2024-05-09T20:51:10.595Z,102582.06
2024-05-09T20:53:37.205Z,102591.84
2024-05-09T20:56:04.050Z,102592.31
2024-05-09T21:02:18.103Z,102592.78
2024-05-09T21:04:45.039Z,102597.84
2024-05-09T21:07:11.969Z,102587.28
2024-05-09T21:09:38.755Z,102594.47
2024-05-09T21:12:05.545Z,102598.88
2024-05-09T21:18:13.679Z,102579.53
2024-05-09T21:20:40.427Z,102581.72
2024-05-09T21:23:07.207Z,102578.69
2024-05-09T21:25:49.378Z,102578.78
2024-05-09T21:28:16.107Z,102587.47
2024-05-09T21:34:24.088Z,102589.00
2024-05-09T21:36:50.831Z,102591.34
2024-05-09T21:39:17.542Z,102592.28
2024-05-09T21:41:44.178Z,102588.06
2024-05-09T21:44:10.901Z,102589.94
2024-05-09T21:46:37.706Z,102584.75
2024-05-09T21:49:04.476Z,102583.41
2024-05-09T21:51:31.922Z,102584.34
2024-05-09T21:57:45.955Z,102586.00
2024-05-09T22:00:28.206Z,102591.63
2024-05-09T22:03:21.651Z,102592.13
2024-05-09T22:05:48.339Z,102588.97
2024-05-09T22:08:15.057Z,102579.19
2024-05-09T22:10:41.948Z,102585.25
2024-05-09T22:13:43.085Z,102588.00
2024-05-09T22:19:50.440Z,102587.06
2024-05-09T22:22:17.294Z,102579.09
2024-05-09T22:24:44.080Z,102575.72
2024-05-09T22:27:11.928Z,102576.91
2024-05-09T22:29:39.012Z,102579.16
2024-05-09T22:32:06.014Z,102583.78
2024-05-09T22:34:32.719Z,102580.50
2024-05-09T22:36:59.557Z,102587.38
2024-05-09T22:39:26.360Z,102587.38
2024-05-09T22:41:53.976Z,102587.47
2024-05-09T22:44:20.619Z,102586.34
2024-05-09T22:46:47.243Z,102586.63
2024-05-09T22:49:13.980Z,102587.03
2024-05-09T22:51:40.811Z,102593.47
2024-05-09T22:54:07.805Z,102583.03
2024-05-09T22:56:34.431Z,102582.09
2024-05-09T22:59:01.332Z,102589.25
2024-05-09T23:01:28.157Z,102583.13
2024-05-09T23:03:54.998Z,102584.22
2024-05-09T23:06:21.927Z,102588.69
2024-05-09T23:08:48.606Z,102586.44
2024-05-09T23:11:15.442Z,102588.09
2024-05-09T23:13:42.168Z,102584.72
2024-05-09T23:16:17.814Z,102586.53
2024-05-09T23:18:44.668Z,102585.19
2024-05-09T23:21:11.403Z,102581.75
2024-05-09T23:23:38.023Z,102588.44
2024-05-09T23:26:05.329Z,102584.28
2024-05-09T23:28:32.142Z,102579.06
2024-05-09T23:30:58.829Z,102581.13
2024-05-09T23:33:25.918Z,102576.09
2024-05-09T23:35:52.549Z,102576.25
2024-05-09T23:38:22.481Z,102578.03
2024-05-09T23:40:51.046Z,102571.19
2024-05-09T23:43:37.506Z,102568.53
2024-05-09T23:46:04.305Z,102575.88
2024-05-09T23:48:31.025Z,102566.47
2024-05-09T23:50:57.698Z,102573.69
2024-05-09T23:57:11.795Z,102572.34
